createdAt,value
2022-10-22T00:01:12.374Z,44.08
2022-10-22T00:03:39.955Z,39.70
2022-10-22T00:06:09.133Z,37.85
2022-10-22T00:08:36.843Z,43.75
2022-10-22T00:11:10.184Z,39.40
2022-10-22T00:13:37.774Z,39.20
2022-10-22T00:16:05.717Z,42.47
2022-10-22T00:18:33.267Z,46.03
2022-10-22T00:21:00.807Z,38.03
2022-10-22T00:23:29.743Z,40.40
2022-10-22T00:25:57.304Z,37.70
2022-10-22T00:28:25.432Z,41.35
2022-10-22T00:30:57.783Z,35.00
2022-10-22T00:33:25.785Z,40.92
2022-10-22T00:35:53.304Z,40.75
2022-10-22T00:38:21.010Z,37.50
2022-10-22T00:40:50.131Z,36.65
2022-10-22T00:43:20.236Z,38.42
2022-10-22T00:45:48.262Z,38.97
2022-10-22T00:48:18.445Z,44.17
2022-10-22T00:50:51.363Z,38.70
2022-10-22T00:53:23.483Z,37.72
2022-10-22T00:55:55.104Z,40.28
2022-10-22T00:58:26.392Z,34.70
2022-10-22T01:00:54.601Z,39.72
2022-10-22T01:03:22.737Z,37.50
2022-10-22T01:05:56.894Z,47.67
2022-10-22T01:08:30.052Z,45.55
2022-10-22T01:11:08.925Z,44.22
2022-10-22T01:13:50.382Z,47.88
2022-10-22T01:16:22.707Z,45.53
2022-10-22T01:18:58.808Z,42.67
2022-10-22T01:21:33.813Z,48.42
2022-10-22T01:24:31.741Z,49.72
2022-10-22T01:27:12.087Z,43.47
2022-10-22T01:29:45.161Z,44.60
2022-10-22T01:32:17.550Z,47.38
2022-10-22T01:34:49.611Z,43.95
2022-10-22T01:37:19.501Z,43.22
2022-10-22T01:39:49.117Z,40.15
2022-10-22T01:42:16.665Z,44.53
2022-10-22T01:44:46.502Z,45.17
2022-10-22T01:47:28.632Z,44.75
2022-10-22T01:50:24.808Z,37.00
2022-10-22T01:53:07.965Z,38.22
2022-10-22T01:55:44.576Z,38.38
2022-10-22T01:58:23.658Z,42.13
2022-10-22T02:01:01.362Z,34.33
2022-10-22T02:03:37.772Z,41.85
2022-10-22T02:06:12.117Z,49.30
2022-10-22T02:08:40.357Z,37.92
2022-10-22T02:11:08.558Z,40.00
2022-10-22T02:13:42.454Z,40.70
2022-10-22T02:16:17.123Z,45.47
2022-10-22T02:18:47.727Z,46.50
2022-10-22T02:21:15.734Z,45.50
2022-10-22T02:23:43.332Z,42.67
2022-10-22T02:26:17.314Z,40.97
2022-10-22T02:28:50.863Z,42.15
2022-10-22T02:31:25.304Z,44.50
2022-10-22T02:33:56.737Z,35.17
2022-10-22T02:36:25.709Z,41.47
2022-10-22T02:38:53.792Z,45.75
2022-10-22T02:41:21.339Z,47.65
2022-10-22T02:43:51.787Z,42.97
2022-10-22T02:46:20.893Z,35.75
2022-10-22T02:48:48.513Z,47.30
2022-10-22T02:51:16.441Z,41.95
2022-10-22T02:53:43.955Z,45.20
2022-10-22T02:56:12.535Z,44.42
2022-10-22T02:58:40.051Z,40.33
2022-10-22T03:01:09.435Z,42.90
2022-10-22T03:03:40.177Z,31.30
2022-10-22T03:06:08.473Z,36.58
2022-10-22T03:08:35.991Z,42.83
2022-10-22T03:11:03.570Z,38.88
2022-10-22T03:13:31.083Z,41.65
2022-10-22T03:15:58.591Z,53.67
2022-10-22T03:18:26.119Z,39.40
2022-10-22T03:21:05.650Z,69.45
2022-10-22T03:23:33.708Z,79.82
2022-10-22T03:26:01.327Z,66.78
2022-10-22T03:28:28.982Z,66.88
2022-10-22T03:30:56.496Z,84.30
2022-10-22T03:33:24.107Z,67.32
2022-10-22T03:35:51.687Z,52.28
2022-10-22T03:38:20.691Z,38.95
2022-10-22T03:40:48.467Z,81.80
2022-10-22T03:43:16.439Z,162.32
2022-10-22T03:45:43.928Z,47.90
2022-10-22T03:48:11.444Z,50.67
2022-10-22T03:50:38.964Z,64.32
2022-10-22T03:53:07.140Z,71.13
2022-10-22T03:55:36.012Z,79.28
2022-10-22T03:58:03.523Z,82.25
2022-10-22T04:00:31.043Z,84.85
2022-10-22T04:02:58.741Z,90.32
2022-10-22T04:05:26.277Z,87.93
2022-10-22T04:07:53.844Z,76.45
2022-10-22T04:10:21.572Z,59.38
2022-10-22T04:12:50.538Z,53.97
2022-10-22T04:15:18.720Z,55.67
2022-10-22T04:17:46.223Z,49.67
2022-10-22T04:20:13.732Z,46.63
2022-10-22T04:22:41.255Z,38.72
2022-10-22T04:25:09.310Z,38.92
2022-10-22T04:27:37.523Z,37.45
2022-10-22T04:30:07.884Z,38.90
2022-10-22T04:32:35.456Z,54.50
2022-10-22T04:35:02.962Z,63.38
2022-10-22T04:37:30.487Z,67.50
2022-10-22T04:39:58.410Z,44.47
2022-10-22T04:42:26.123Z,41.05
2022-10-22T04:44:53.615Z,39.05
2022-10-22T04:47:22.532Z,44.20
2022-10-22T04:49:50.049Z,43.47
2022-10-22T04:52:17.588Z,42.58
2022-10-22T04:54:45.097Z,35.45
2022-10-22T04:57:12.604Z,51.88
2022-10-22T04:59:40.152Z,75.18
2022-10-22T05:02:07.697Z,71.63
2022-10-22T05:04:36.567Z,76.57
2022-10-22T05:07:04.083Z,88.10
2022-10-22T05:09:31.605Z,83.53
2022-10-22T05:11:59.133Z,71.38
2022-10-22T05:14:27.324Z,70.65
2022-10-22T05:16:55.179Z,60.10
2022-10-22T05:19:25.268Z,61.45
2022-10-22T05:21:55.921Z,65.63
2022-10-22T05:24:23.654Z,65.03
2022-10-22T05:26:51.703Z,55.42
2022-10-22T05:29:19.376Z,58.13
2022-10-22T05:31:47.182Z,50.63
2022-10-22T05:34:15.121Z,52.90
2022-10-22T05:36:43.046Z,59.50
2022-10-22T05:39:12.251Z,59.95
2022-10-22T05:41:39.761Z,58.25
2022-10-22T05:44:07.334Z,55.17
2022-10-22T05:46:36.755Z,52.88
2022-10-22T05:49:06.220Z,64.07
2022-10-22T05:51:35.923Z,57.60
2022-10-22T05:54:05.934Z,52.05
2022-10-22T05:56:36.681Z,43.10
2022-10-22T05:59:04.410Z,48.85
2022-10-22T06:01:35.194Z,52.53
2022-10-22T06:04:05.657Z,60.00
2022-10-22T06:06:35.389Z,59.15
2022-10-22T06:09:06.351Z,69.95
2022-10-22T06:11:35.537Z,84.32
2022-10-22T06:14:03.088Z,74.30
2022-10-22T06:16:31.052Z,70.32
2022-10-22T06:19:00.366Z,74.35
2022-10-22T06:21:27.924Z,67.57
2022-10-22T06:23:57.452Z,62.50
2022-10-22T06:26:25.128Z,59.38
2022-10-22T06:28:54.267Z,51.28
2022-10-22T06:31:21.807Z,50.88
2022-10-22T06:33:49.353Z,58.00
2022-10-22T06:36:20.299Z,50.40
2022-10-22T06:38:48.411Z,42.70
2022-10-22T06:41:17.471Z,61.58
2022-10-22T06:43:46.796Z,45.85
2022-10-22T06:46:19.975Z,47.28
2022-10-22T06:48:51.019Z,43.72
2022-10-22T06:51:18.991Z,49.05
2022-10-22T06:53:46.582Z,60.13
2022-10-22T06:56:15.569Z,54.60
2022-10-22T06:58:43.139Z,52.45
2022-10-22T07:01:13.990Z,57.25
2022-10-22T07:03:43.327Z,59.35
2022-10-22T07:06:12.717Z,58.42
2022-10-22T07:08:41.164Z,54.30
2022-10-22T07:11:10.921Z,63.40
2022-10-22T07:13:38.696Z,60.47
2022-10-22T07:16:08.140Z,55.22
2022-10-22T07:18:36.686Z,48.22
2022-10-22T07:21:06.889Z,45.40
2022-10-22T07:23:34.662Z,35.67
2022-10-22T07:26:03.344Z,45.67
2022-10-22T07:28:32.506Z,43.58
2022-10-22T07:31:00.111Z,47.05
2022-10-22T07:33:28.274Z,40.75
2022-10-22T07:35:58.963Z,41.80
2022-10-22T07:38:28.032Z,43.47
2022-10-22T07:40:55.588Z,38.28
2022-10-22T07:43:23.263Z,33.53
2022-10-22T07:45:51.064Z,36.95
2022-10-22T07:48:18.627Z,41.17
2022-10-22T07:50:46.140Z,37.05
2022-10-22T07:53:13.704Z,36.80
2022-10-22T07:55:42.560Z,40.38
2022-10-22T07:58:10.088Z,45.00
2022-10-22T08:00:37.631Z,35.33
2022-10-22T08:03:05.363Z,36.53
2022-10-22T08:05:32.887Z,39.10
2022-10-22T08:08:00.394Z,39.85
2022-10-22T08:10:27.903Z,32.80
2022-10-22T08:12:57.152Z,36.13
2022-10-22T08:15:25.564Z,32.25
2022-10-22T08:17:53.107Z,41.00
2022-10-22T08:20:21.257Z,40.60
2022-10-22T08:22:48.776Z,38.88
2022-10-22T08:25:18.001Z,30.77
2022-10-22T08:27:46.374Z,39.95
2022-10-22T08:30:15.651Z,49.30
2022-10-22T08:32:43.541Z,39.78
2022-10-22T08:35:14.146Z,44.30
2022-10-22T08:37:44.492Z,27.55
2022-10-22T08:40:20.605Z,25.63
2022-10-22T08:43:31.220Z,18.27
2022-10-22T08:46:11.929Z,25.70
2022-10-22T08:48:46.711Z,17.05
2022-10-22T08:51:17.513Z,17.92
2022-10-22T08:53:59.543Z,24.50
2022-10-22T08:56:27.726Z,26.95
2022-10-22T08:59:02.013Z,27.88
2022-10-22T09:01:36.425Z,31.42
2022-10-22T09:04:11.853Z,31.95
2022-10-22T09:06:44.158Z,23.08
2022-10-22T09:09:15.902Z,21.60
2022-10-22T09:11:47.013Z,19.08
2022-10-22T09:14:17.490Z,19.50
2022-10-22T09:17:02.231Z,18.55
2022-10-22T09:19:37.562Z,18.45
2022-10-22T09:22:17.652Z,19.45
2022-10-22T09:24:47.577Z,29.27
2022-10-22T09:27:17.608Z,26.23
2022-10-22T09:29:46.764Z,32.78
2022-10-22T09:32:16.540Z,26.95
2022-10-22T09:34:45.419Z,34.25
2022-10-22T09:37:13.225Z,38.58
2022-10-22T09:39:45.066Z,28.95
2022-10-22T09:42:15.514Z,41.67
2022-10-22T09:44:46.315Z,43.90
2022-10-22T09:47:42.649Z,31.73
2022-10-22T09:50:27.545Z,28.63
2022-10-22T09:53:05.314Z,30.27
2022-10-22T09:55:33.383Z,31.48
2022-10-22T09:58:01.709Z,21.00
2022-10-22T10:00:31.309Z,23.65
2022-10-22T10:03:01.329Z,26.95
2022-10-22T10:05:31.987Z,26.38
2022-10-22T10:08:01.724Z,25.40
2022-10-22T10:10:36.001Z,35.03
2022-10-22T10:13:23.058Z,33.40
2022-10-22T10:15:57.025Z,33.13
2022-10-22T10:18:37.695Z,30.77
2022-10-22T10:23:58.425Z,40.50
2022-10-22T10:26:32.811Z,34.05
2022-10-22T10:29:15.174Z,23.00
2022-10-22T10:31:56.524Z,23.90
2022-10-22T10:34:38.985Z,34.90
2022-10-22T10:37:19.334Z,15.05
2022-10-22T10:39:59.988Z,12.48
2022-10-22T10:42:34.938Z,14.10
2022-10-22T10:45:13.145Z,29.83
2022-10-22T10:48:19.526Z,37.50
2022-10-22T10:50:59.384Z,28.65
2022-10-22T10:53:42.876Z,28.20
2022-10-22T10:56:24.930Z,29.40
2022-10-22T10:59:01.875Z,18.65
2022-10-22T11:01:38.318Z,11.50
2022-10-22T11:04:24.653Z,13.73
2022-10-22T11:07:10.829Z,12.32
2022-10-22T11:09:44.173Z,57.33
2022-10-22T11:12:17.998Z,8.80
2022-10-22T11:14:56.671Z,25.83
2022-10-22T11:17:27.715Z,12.48
2022-10-22T11:20:01.913Z,61.50
2022-10-22T11:22:35.081Z,40.40
2022-10-22T11:25:06.859Z,4.03
2022-10-22T11:27:40.319Z,21.77
2022-10-22T11:30:14.768Z,3.25
2022-10-22T11:32:45.371Z,17.95
2022-10-22T11:35:16.957Z,33.83
2022-10-22T11:37:48.377Z,20.17
2022-10-22T11:40:19.730Z,41.47
2022-10-22T11:42:51.062Z,61.00
2022-10-22T11:45:31.428Z,54.75
2022-10-22T11:48:06.603Z,46.58
2022-10-22T11:50:50.787Z,68.15
2022-10-22T11:53:27.254Z,23.98
2022-10-22T11:55:57.508Z,29.08
2022-10-22T11:58:32.094Z,66.57
2022-10-22T12:01:19.696Z,23.23
2022-10-22T12:03:51.304Z,57.90
2022-10-22T12:06:22.199Z,29.88
2022-10-22T12:08:59.357Z,4.43
2022-10-22T12:11:28.784Z,17.75
2022-10-22T12:14:12.784Z,47.80
2022-10-22T12:16:55.818Z,9.23
2022-10-22T12:19:32.956Z,14.85
2022-10-22T12:22:07.288Z,35.10
2022-10-22T12:24:40.439Z,16.98
2022-10-22T12:27:21.636Z,56.47
2022-10-22T12:29:54.963Z,14.93
2022-10-22T12:32:22.603Z,9.23
2022-10-22T12:34:52.077Z,24.58
2022-10-22T12:37:20.501Z,13.23
2022-10-22T12:39:49.388Z,18.70
2022-10-22T12:42:18.807Z,32.42
2022-10-22T12:44:46.324Z,2.50
2022-10-22T12:47:17.564Z,2.22
2022-10-22T12:49:48.162Z,2.78
2022-10-22T12:52:19.207Z,4.47
2022-10-22T12:54:52.320Z,3.60
2022-10-22T12:57:21.121Z,6.70
2022-10-22T12:59:50.884Z,3.65
2022-10-22T13:02:22.588Z,2.85
2022-10-22T13:05:16.987Z,7.47
2022-10-22T13:07:48.568Z,4.68
2022-10-22T13:10:21.051Z,4.32
2022-10-22T13:12:54.960Z,3.00
2022-10-22T13:15:34.493Z,13.93
2022-10-22T13:18:15.737Z,8.48
2022-10-22T13:20:52.863Z,4.18
2022-10-22T13:23:22.285Z,23.08
2022-10-22T13:26:01.042Z,17.85
2022-10-22T13:28:30.091Z,8.80
2022-10-22T13:31:00.009Z,23.38
2022-10-22T13:33:31.394Z,9.93
2022-10-22T13:35:59.272Z,33.78
2022-10-22T13:38:28.388Z,25.58
2022-10-22T13:40:56.618Z,16.35
2022-10-22T13:43:26.093Z,26.08
2022-10-22T13:45:56.670Z,10.63
2022-10-22T13:48:26.414Z,22.75
2022-10-22T13:50:54.513Z,16.67
2022-10-22T13:53:24.943Z,22.38
2022-10-22T13:55:52.571Z,38.38
2022-10-22T13:58:23.827Z,28.58
2022-10-22T14:00:55.536Z,45.13
2022-10-22T14:03:27.187Z,35.80
2022-10-22T14:05:54.844Z,27.40
2022-10-22T14:08:24.145Z,19.67
2022-10-22T14:10:51.639Z,31.58
2022-10-22T14:13:20.621Z,5.32
2022-10-22T14:15:51.239Z,3.25
2022-10-22T14:18:25.349Z,5.63
2022-10-22T14:20:54.923Z,2.97
2022-10-22T14:23:24.344Z,3.33
2022-10-22T14:25:51.977Z,4.18
2022-10-22T14:28:19.912Z,3.88
2022-10-22T14:30:48.102Z,2.20
2022-10-22T14:33:18.196Z,2.35
2022-10-22T14:35:48.703Z,3.58
2022-10-22T14:38:16.596Z,3.30
2022-10-22T14:40:44.994Z,2.25
2022-10-22T14:43:13.799Z,2.65
2022-10-22T14:45:41.319Z,2.85
2022-10-22T14:48:09.222Z,3.28
2022-10-22T14:50:36.810Z,2.20
2022-10-22T14:53:05.905Z,2.10
2022-10-22T14:55:33.439Z,4.60
2022-10-22T14:58:00.989Z,2.92
2022-10-22T15:00:28.683Z,3.53
2022-10-22T15:02:56.667Z,2.38
2022-10-22T15:05:25.624Z,2.90
2022-10-22T15:07:53.120Z,2.58
2022-10-22T15:10:22.034Z,2.60
2022-10-22T15:12:49.542Z,2.22
2022-10-22T15:15:18.245Z,5.93
2022-10-22T15:17:48.139Z,2.35
2022-10-22T15:20:15.631Z,2.10
2022-10-22T15:22:43.442Z,2.03
2022-10-22T15:25:11.282Z,2.25
2022-10-22T15:27:40.170Z,2.05
2022-10-22T15:30:09.067Z,3.13
2022-10-22T15:32:36.591Z,2.83
2022-10-22T15:35:05.840Z,2.53
2022-10-22T15:37:33.365Z,2.17
2022-10-22T15:40:03.651Z,2.35
2022-10-22T15:42:31.228Z,2.35
2022-10-22T15:45:02.149Z,2.20
2022-10-22T15:47:31.149Z,4.18
2022-10-22T15:49:59.047Z,2.08
2022-10-22T15:52:26.598Z,2.17
2022-10-22T15:54:54.375Z,2.60
2022-10-22T15:57:21.946Z,3.50
2022-10-22T15:59:50.051Z,2.33
2022-10-22T16:02:18.945Z,4.10
2022-10-22T16:04:46.477Z,2.90
2022-10-22T16:07:13.995Z,5.22
2022-10-22T16:09:41.522Z,12.02
2022-10-22T16:12:09.749Z,11.82
2022-10-22T16:14:37.703Z,9.35
2022-10-22T16:17:05.237Z,20.60
2022-10-22T16:19:34.220Z,42.05
2022-10-22T16:22:03.291Z,40.88
2022-10-22T16:24:30.808Z,37.28
2022-10-22T16:26:58.595Z,25.58
2022-10-22T16:29:26.127Z,26.67
2022-10-22T16:31:53.630Z,23.00
2022-10-22T16:34:21.157Z,29.40
2022-10-22T16:39:24.381Z,28.20
2022-10-22T16:41:51.924Z,18.95
2022-10-22T16:44:19.433Z,13.82
2022-10-22T16:46:46.952Z,12.10
2022-10-22T16:49:14.504Z,15.40
2022-10-22T16:51:42.052Z,15.38
2022-10-22T16:54:13.072Z,13.73
2022-10-22T16:56:41.061Z,17.33
2022-10-22T16:59:08.619Z,18.77
2022-10-22T17:01:40.607Z,16.50
2022-10-22T17:04:08.816Z,17.05
2022-10-22T17:06:36.632Z,27.80
2022-10-22T17:09:05.159Z,40.20
2022-10-22T17:11:37.014Z,34.20
2022-10-22T17:14:07.459Z,26.98
2022-10-22T17:16:35.103Z,26.00
2022-10-22T17:19:04.595Z,24.55
2022-10-22T17:21:32.195Z,27.45
2022-10-22T17:23:59.743Z,27.40
2022-10-22T17:26:27.711Z,23.20
2022-10-22T17:28:56.927Z,17.70
2022-10-22T17:31:26.407Z,24.30
2022-10-22T17:33:55.886Z,19.02
2022-10-22T17:36:25.052Z,35.17
2022-10-22T17:38:55.175Z,30.42
2022-10-22T17:41:24.908Z,18.30
2022-10-22T17:43:52.689Z,27.50
2022-10-22T17:46:23.530Z,23.20
2022-10-22T17:48:52.594Z,24.17
2022-10-22T17:51:21.282Z,24.20
2022-10-22T17:53:50.158Z,30.60
2022-10-22T17:56:19.915Z,31.67
2022-10-22T17:58:47.652Z,29.75
2022-10-22T18:01:23.464Z,25.10
2022-10-22T18:03:51.137Z,35.58
2022-10-22T18:06:18.801Z,18.52
2022-10-22T18:08:46.632Z,14.82
2022-10-22T18:11:17.203Z,29.33
2022-10-22T18:13:44.920Z,18.33
2022-10-22T18:16:13.350Z,20.92
2022-10-22T18:18:42.283Z,22.85
2022-10-22T18:21:09.775Z,27.35
2022-10-22T18:23:37.695Z,37.30
2022-10-22T18:26:06.140Z,59.22
2022-10-22T18:28:33.942Z,57.38
2022-10-22T18:31:06.771Z,65.85
2022-10-22T18:33:35.213Z,68.07
2022-10-22T18:36:06.773Z,61.05
2022-10-22T18:38:34.612Z,45.53
2022-10-22T18:41:02.252Z,60.40
2022-10-22T18:43:29.769Z,60.40
2022-10-22T18:45:57.333Z,61.47
2022-10-22T18:48:24.868Z,48.97
2022-10-22T18:51:00.277Z,71.32
2022-10-22T18:53:29.536Z,69.20
2022-10-22T18:55:57.070Z,35.50
2022-10-22T18:58:24.627Z,32.95
2022-10-22T19:00:52.734Z,23.08
2022-10-22T19:03:20.294Z,45.33
2022-10-22T19:05:50.440Z,30.25
2022-10-22T19:08:18.636Z,36.65
2022-10-22T19:10:48.164Z,41.80
2022-10-22T19:13:16.892Z,41.65
2022-10-22T19:15:44.555Z,40.20
2022-10-22T19:18:15.009Z,44.30
2022-10-22T19:20:42.632Z,27.25
2022-10-22T19:23:10.140Z,58.80
2022-10-22T19:25:37.799Z,46.35
2022-10-22T19:28:06.952Z,48.55
2022-10-22T19:30:34.512Z,45.85
2022-10-22T19:33:02.027Z,54.72
2022-10-22T19:35:30.706Z,48.72
2022-10-22T19:37:58.225Z,45.55
2022-10-22T19:40:27.198Z,37.25
2022-10-22T19:42:54.873Z,27.95
2022-10-22T19:45:23.698Z,30.92
2022-10-22T19:47:51.214Z,43.92
2022-10-22T19:50:18.925Z,42.05
2022-10-22T19:52:46.457Z,53.33
2022-10-22T19:55:14.016Z,38.08
2022-10-22T19:57:41.749Z,40.67
2022-10-22T20:00:10.548Z,32.83
2022-10-22T20:02:39.517Z,33.03
2022-10-22T20:05:07.735Z,38.70
2022-10-22T20:07:35.273Z,39.45
2022-10-22T20:10:02.999Z,54.35
2022-10-22T20:12:30.503Z,40.95
2022-10-22T20:14:58.253Z,66.18
2022-10-22T20:17:25.727Z,49.08
2022-10-22T20:19:56.390Z,45.90
2022-10-22T20:22:23.927Z,44.63
2022-10-22T20:24:51.663Z,218.55
2022-10-22T20:27:19.232Z,61.63
2022-10-22T20:29:46.744Z,59.80
2022-10-22T20:32:14.308Z,156.68
2022-10-22T20:34:42.424Z,196.07
2022-10-22T20:37:11.362Z,406.85
2022-10-22T20:39:38.879Z,372.00
2022-10-22T20:42:06.466Z,58.38
2022-10-22T20:44:34.019Z,63.22
2022-10-22T20:47:01.708Z,114.97
2022-10-22T20:49:29.389Z,67.55
2022-10-22T20:51:56.900Z,164.85
2022-10-22T20:54:25.807Z,62.65
2022-10-22T20:56:53.548Z,84.70
2022-10-22T20:59:21.841Z,127.03
2022-10-22T21:01:50.922Z,83.82
2022-10-22T21:04:20.227Z,118.90
2022-10-22T21:06:50.081Z,75.72
2022-10-22T21:09:17.723Z,68.60
2022-10-22T21:11:47.156Z,64.22
2022-10-22T21:14:16.690Z,63.95
2022-10-22T21:16:46.430Z,51.88
2022-10-22T21:19:13.965Z,58.97
2022-10-22T21:21:41.785Z,55.22
2022-10-22T21:24:09.652Z,48.15
2022-10-22T21:26:37.750Z,47.42
2022-10-22T21:29:06.626Z,49.15
2022-10-22T21:31:34.455Z,49.83
2022-10-22T21:34:02.042Z,40.22
2022-10-22T21:36:29.548Z,83.68
2022-10-22T21:38:57.109Z,91.28
2022-10-22T21:41:25.332Z,38.78
2022-10-22T21:43:52.892Z,36.33
2022-10-22T21:46:23.428Z,35.88
2022-10-22T21:48:54.234Z,37.85
2022-10-22T21:51:23.444Z,41.55
2022-10-22T21:56:22.528Z,45.53
2022-10-22T21:58:50.175Z,42.85
2022-10-22T22:01:18.352Z,68.45
2022-10-22T22:03:49.108Z,44.25
2022-10-22T22:06:21.251Z,41.60
2022-10-22T22:08:49.811Z,351.83
2022-10-22T22:11:19.737Z,43.90
2022-10-22T22:13:48.617Z,194.68
2022-10-22T22:16:21.208Z,192.25
2022-10-22T22:18:53.011Z,185.48
2022-10-22T22:21:21.887Z,583.33
2022-10-22T22:23:50.574Z,184.48
2022-10-22T22:26:25.205Z,310.83
2022-10-22T22:28:56.386Z,255.63
2022-10-22T22:31:25.882Z,466.55
2022-10-22T22:33:58.943Z,635.90
2022-10-22T22:36:26.468Z,491.60
2022-10-22T22:38:55.188Z,436.48
2022-10-22T22:41:23.008Z,376.73
2022-10-22T22:43:50.583Z,367.48
2022-10-22T22:46:18.223Z,301.05
2022-10-22T22:48:47.937Z,253.73
2022-10-22T22:51:17.180Z,219.23
2022-10-22T22:53:45.860Z,229.15
2022-10-22T22:56:16.176Z,197.45
2022-10-22T22:58:44.445Z,274.15
2022-10-22T23:01:15.660Z,199.30
2022-10-22T23:03:44.174Z,214.02
2022-10-22T23:06:12.068Z,148.27
2022-10-22T23:08:41.421Z,185.18
2022-10-22T23:11:11.542Z,265.60
2022-10-22T23:13:39.736Z,154.45
2022-10-22T23:16:08.503Z,232.13
2022-10-22T23:18:36.726Z,154.18
2022-10-22T23:21:06.452Z,192.48
2022-10-22T23:23:34.545Z,240.45
2022-10-22T23:26:04.129Z,203.77
2022-10-22T23:28:31.778Z,234.75
2022-10-22T23:30:59.310Z,188.05
2022-10-22T23:33:27.335Z,183.52
2022-10-22T23:35:54.827Z,187.40
2022-10-22T23:38:22.399Z,184.07
2022-10-22T23:40:55.088Z,188.75
2022-10-22T23:43:24.020Z,162.25
2022-10-22T23:45:51.584Z,191.30
2022-10-22T23:48:19.517Z,167.43
2022-10-22T23:50:47.235Z,193.38
2022-10-22T23:53:14.821Z,146.45
2022-10-22T23:55:44.605Z,174.68
2022-10-22T23:58:12.891Z,172.45
